createdAt,value
2024-04-08T00:02:08.844Z,25.00
2024-04-08T00:04:39.843Z,24.90
2024-04-08T00:07:10.878Z,24.90
2024-04-08T00:09:42.023Z,24.30
2024-04-08T00:12:13.168Z,24.00
2024-04-08T00:14:44.216Z,24.10
2024-04-08T00:17:15.263Z,24.00
2024-04-08T00:19:46.257Z,24.00
2024-04-08T00:22:17.475Z,23.90
2024-04-08T00:24:55.937Z,24.10
2024-04-08T00:27:26.968Z,23.80
2024-04-08T00:29:58.151Z,23.50
2024-04-08T00:32:30.840Z,23.80
2024-04-08T00:35:02.142Z,23.80
2024-04-08T00:37:33.191Z,23.70
2024-04-08T00:40:04.962Z,23.80
2024-04-08T00:42:36.045Z,23.50
2024-04-08T00:45:07.283Z,23.70
2024-04-08T00:47:38.524Z,23.70
2024-04-08T00:50:11.655Z,23.80
2024-04-08T00:52:42.926Z,23.90
2024-04-08T00:55:14.088Z,23.80
2024-04-08T00:57:47.379Z,23.70
2024-04-08T01:00:18.566Z,23.50
2024-04-08T01:02:49.652Z,23.70
2024-04-08T01:05:20.724Z,23.70
2024-04-08T01:07:51.895Z,23.70
2024-04-08T01:10:25.726Z,23.90
2024-04-08T01:12:56.746Z,23.90
2024-04-08T01:15:27.847Z,24.50
2024-04-08T01:17:58.879Z,24.60
2024-04-08T01:20:29.971Z,24.20
2024-04-08T01:23:02.918Z,23.90
2024-04-08T01:25:33.951Z,23.80
2024-04-08T01:28:05.482Z,24.00
2024-04-08T01:30:36.532Z,24.00
2024-04-08T01:33:07.594Z,24.00
2024-04-08T01:35:38.614Z,24.10
2024-04-08T01:38:09.778Z,24.50
2024-04-08T01:40:40.832Z,24.10
2024-04-08T01:43:12.126Z,24.50
2024-04-08T01:45:43.147Z,24.70
2024-04-08T01:48:14.576Z,24.70
2024-04-08T01:50:46.109Z,24.50
2024-04-08T01:53:17.233Z,24.40
2024-04-08T01:55:48.224Z,24.20
2024-04-08T01:58:19.286Z,24.10
2024-04-08T02:00:50.344Z,24.00
2024-04-08T02:03:21.468Z,23.90
2024-04-08T02:05:52.529Z,23.50
2024-04-08T02:08:23.508Z,23.50
2024-04-08T02:10:54.548Z,23.80
2024-04-08T02:13:25.608Z,23.80
2024-04-08T02:15:56.662Z,23.50
2024-04-08T02:18:27.658Z,23.80
2024-04-08T02:20:58.705Z,23.80
2024-04-08T02:23:29.878Z,24.00
2024-04-08T02:26:01.756Z,23.90
2024-04-08T02:28:32.993Z,23.70
2024-04-08T02:31:04.920Z,24.30
2024-04-08T02:33:36.002Z,24.50
2024-04-08T02:36:07.887Z,24.20
2024-04-08T02:38:38.962Z,23.90
2024-04-08T02:41:10.095Z,23.80
2024-04-08T02:43:41.140Z,23.50
2024-04-08T02:46:12.179Z,23.20
2024-04-08T02:48:43.471Z,23.20
2024-04-08T02:51:14.511Z,23.10
2024-04-08T02:53:45.761Z,22.80
2024-04-08T02:56:16.955Z,22.80
2024-04-08T02:58:49.012Z,22.40
2024-04-08T03:01:20.954Z,22.30
2024-04-08T03:03:54.558Z,22.20
2024-04-08T03:06:25.592Z,22.30
2024-04-08T03:08:56.809Z,22.20
2024-04-08T03:11:27.964Z,22.40
2024-04-08T03:13:59.131Z,21.60
2024-04-08T03:16:30.160Z,21.60
2024-04-08T03:19:01.224Z,22.00
2024-04-08T03:21:32.321Z,21.60
2024-04-08T03:24:03.817Z,21.60
2024-04-08T03:26:34.875Z,21.60
2024-04-08T03:29:06.200Z,21.50
2024-04-08T03:31:38.304Z,21.40
2024-04-08T03:34:09.325Z,21.90
2024-04-08T03:36:40.427Z,21.70
2024-04-08T03:39:11.583Z,21.30
2024-04-08T03:41:42.662Z,21.30
2024-04-08T03:44:13.732Z,21.60
2024-04-08T03:46:44.775Z,21.10
2024-04-08T03:49:15.768Z,21.10
2024-04-08T03:51:46.880Z,21.10
2024-04-08T03:54:18.012Z,21.30
2024-04-08T03:56:49.148Z,21.20
2024-04-08T03:59:20.207Z,21.20
2024-04-08T04:01:51.305Z,21.30
2024-04-08T04:04:22.677Z,21.50
2024-04-08T04:06:53.796Z,21.90
2024-04-08T04:09:24.791Z,22.30
2024-04-08T04:11:55.877Z,22.90
2024-04-08T04:14:26.925Z,22.70
2024-04-08T04:16:57.960Z,22.70
2024-04-08T04:19:28.996Z,22.00
2024-04-08T04:22:00.003Z,22.30
2024-04-08T04:24:31.056Z,21.90
2024-04-08T04:27:02.101Z,21.60
2024-04-08T04:29:33.186Z,21.50
2024-04-08T04:32:04.637Z,21.60
2024-04-08T04:34:36.219Z,21.10
2024-04-08T04:37:07.304Z,20.90
2024-04-08T04:39:38.762Z,21.00
2024-04-08T04:42:09.797Z,21.00
2024-04-08T04:44:40.902Z,21.00
2024-04-08T04:47:11.990Z,20.50
2024-04-08T04:49:43.083Z,20.60
2024-04-08T04:52:14.461Z,21.40
2024-04-08T04:54:45.594Z,22.40
2024-04-08T04:57:16.726Z,22.80
2024-04-08T04:59:47.920Z,23.00
2024-04-08T05:02:18.962Z,22.60
2024-04-08T05:04:50.429Z,21.80
2024-04-08T05:07:21.582Z,21.70
2024-04-08T05:09:54.731Z,21.40
2024-04-08T05:12:25.851Z,21.80
2024-04-08T05:14:56.929Z,21.90
2024-04-08T05:17:28.046Z,21.90
2024-04-08T05:20:04.123Z,21.60
2024-04-08T05:22:35.120Z,21.30
2024-04-08T05:25:07.551Z,21.20
2024-04-08T05:27:38.566Z,21.30
2024-04-08T05:30:11.309Z,21.00
2024-04-08T05:32:42.364Z,21.30
2024-04-08T05:35:13.423Z,21.60
2024-04-08T05:37:44.437Z,21.90
2024-04-08T05:40:18.246Z,22.10
2024-04-08T05:42:49.289Z,22.40
2024-04-08T05:45:20.926Z,21.80
2024-04-08T05:47:55.656Z,21.60
2024-04-08T05:50:27.456Z,22.20
2024-04-08T05:52:58.478Z,22.40
2024-04-08T05:55:31.943Z,22.60
2024-04-08T05:58:04.196Z,22.50
2024-04-08T06:00:38.134Z,22.40
2024-04-08T06:03:09.202Z,22.20
2024-04-08T06:05:42.735Z,22.30
2024-04-08T06:08:14.668Z,22.30
2024-04-08T06:10:52.032Z,22.40
2024-04-08T06:13:24.049Z,22.30
2024-04-08T06:15:55.086Z,22.60
2024-04-08T06:18:26.344Z,22.60
2024-04-08T06:20:59.285Z,22.50
2024-04-08T06:23:30.399Z,22.30
2024-04-08T06:26:02.010Z,22.70
2024-04-08T06:28:33.143Z,22.70
2024-04-08T06:31:04.499Z,23.10
2024-04-08T06:33:35.542Z,23.30
2024-04-08T06:36:07.132Z,23.10
2024-04-08T06:38:38.228Z,23.30
2024-04-08T06:41:09.340Z,23.00
2024-04-08T06:43:40.343Z,23.40
2024-04-08T06:46:11.938Z,23.80
2024-04-08T06:48:42.978Z,23.40
2024-04-08T06:51:14.031Z,23.50
2024-04-08T06:53:45.120Z,23.50
2024-04-08T06:56:16.202Z,23.30
2024-04-08T06:58:49.176Z,23.20
2024-04-08T07:01:21.685Z,23.80
2024-04-08T07:03:52.695Z,23.50
2024-04-08T07:06:24.081Z,23.90
2024-04-08T07:08:55.259Z,24.10
2024-04-08T07:11:27.804Z,24.20
2024-04-08T07:13:58.936Z,24.30
2024-04-08T07:16:29.968Z,24.20
2024-04-08T07:19:01.029Z,24.40
2024-04-08T07:21:32.091Z,24.50
2024-04-08T07:24:03.430Z,24.50
2024-04-08T07:26:35.098Z,24.80
2024-04-08T07:29:06.141Z,25.10
2024-04-08T07:31:37.269Z,25.00
2024-04-08T07:34:08.405Z,25.20
2024-04-08T07:36:39.505Z,25.20
2024-04-08T07:39:13.304Z,25.60
2024-04-08T07:41:44.891Z,25.80
2024-04-08T07:44:15.938Z,25.80
2024-04-08T07:46:46.981Z,25.60
2024-04-08T07:49:18.002Z,24.80
2024-04-08T07:51:49.536Z,25.60
2024-04-08T07:54:20.758Z,25.60
2024-04-08T07:56:51.928Z,26.00
2024-04-08T07:59:22.963Z,26.10
2024-04-08T08:01:53.977Z,25.90
2024-04-08T08:04:25.142Z,25.90
2024-04-08T08:06:56.181Z,25.50
2024-04-08T08:09:27.262Z,26.20
2024-04-08T08:11:58.337Z,26.80
2024-04-08T08:14:29.390Z,26.30
2024-04-08T08:17:01.093Z,26.10
2024-04-08T08:19:34.368Z,26.60
2024-04-08T08:22:05.431Z,26.10
2024-04-08T08:24:37.806Z,26.50
2024-04-08T08:27:09.951Z,26.70
2024-04-08T08:29:41.966Z,26.90
2024-04-08T08:32:13.103Z,26.90
2024-04-08T08:34:45.036Z,26.70
2024-04-08T08:37:16.077Z,26.60
2024-04-08T08:39:51.511Z,26.50
2024-04-08T08:42:25.026Z,26.90
2024-04-08T08:44:58.763Z,27.00
2024-04-08T08:47:29.866Z,27.10
2024-04-08T08:50:04.064Z,27.60
2024-04-08T08:52:35.218Z,27.80
2024-04-08T08:55:07.230Z,27.80
2024-04-08T08:57:39.894Z,28.00
2024-04-08T09:00:15.901Z,28.30
2024-04-08T09:02:48.427Z,28.20
2024-04-08T09:05:19.466Z,28.20
2024-04-08T09:07:50.524Z,28.70
2024-04-08T09:10:21.880Z,28.50
2024-04-08T09:12:53.422Z,28.90
2024-04-08T09:15:27.207Z,29.30
2024-04-08T09:18:07.322Z,29.20
2024-04-08T09:20:38.548Z,29.30
2024-04-08T09:23:10.218Z,29.30
2024-04-08T09:25:41.968Z,28.90
2024-04-08T09:28:14.893Z,29.20
2024-04-08T09:30:46.352Z,29.40
2024-04-08T09:33:18.151Z,29.60
2024-04-08T09:35:49.855Z,29.30
2024-04-08T09:38:22.916Z,29.20
2024-04-08T09:40:55.828Z,29.70
2024-04-08T09:43:28.468Z,29.70
2024-04-08T09:46:03.645Z,29.60
2024-04-08T09:48:34.755Z,29.90
2024-04-08T09:51:09.757Z,29.50
2024-04-08T09:53:40.951Z,29.40
2024-04-08T09:56:21.428Z,28.90
2024-04-08T09:59:15.029Z,29.50
2024-04-08T10:01:47.558Z,30.10
2024-04-08T10:04:24.040Z,30.60
2024-04-08T10:06:57.332Z,30.90
2024-04-08T10:09:28.638Z,30.80
2024-04-08T10:12:04.815Z,31.10
2024-04-08T10:14:36.661Z,31.10
2024-04-08T10:17:10.271Z,31.10
2024-04-08T10:19:44.714Z,30.90
2024-04-08T10:22:18.773Z,30.90
2024-04-08T10:24:57.478Z,30.90
2024-04-08T10:27:29.583Z,31.30
2024-04-08T10:30:01.535Z,31.00
2024-04-08T10:32:32.809Z,31.20
2024-04-08T10:35:09.235Z,31.60
2024-04-08T10:37:40.242Z,32.00
2024-04-08T10:40:12.779Z,31.80
2024-04-08T10:42:43.798Z,32.00
2024-04-08T10:45:15.416Z,32.20
2024-04-08T10:47:47.779Z,32.30
2024-04-08T10:50:19.691Z,32.10
2024-04-08T10:52:50.749Z,32.50
2024-04-08T10:55:22.359Z,32.80
2024-04-08T10:57:53.407Z,33.00
2024-04-08T11:00:24.706Z,32.80
2024-04-08T11:02:56.023Z,33.30
2024-04-08T11:05:29.433Z,33.60
2024-04-08T11:08:01.747Z,33.50
2024-04-08T11:10:32.832Z,33.20
2024-04-08T11:13:03.905Z,34.30
2024-04-08T11:15:35.033Z,35.20
2024-04-08T11:18:12.017Z,34.60
2024-04-08T11:20:43.522Z,33.80
2024-04-08T11:23:15.531Z,34.50
2024-04-08T11:25:47.929Z,34.30
2024-04-08T11:28:19.029Z,33.90
2024-04-08T11:30:50.088Z,34.10
2024-04-08T11:33:21.245Z,34.30
2024-04-08T11:35:52.971Z,34.00
2024-04-08T11:38:34.505Z,34.10
2024-04-08T11:41:08.531Z,34.20
2024-04-08T11:43:42.040Z,33.90
2024-04-08T11:46:14.208Z,34.10
2024-04-08T11:48:46.588Z,34.00
2024-04-08T11:51:17.676Z,34.30
2024-04-08T11:53:48.788Z,34.30
2024-04-08T11:56:19.904Z,33.40
2024-04-08T11:58:54.377Z,34.30
2024-04-08T12:01:25.458Z,34.60
2024-04-08T12:03:56.579Z,34.20
2024-04-08T12:06:27.623Z,34.70
2024-04-08T12:08:58.852Z,34.40
2024-04-08T12:11:29.912Z,34.70
2024-04-08T12:14:01.070Z,34.70
2024-04-08T12:16:32.193Z,35.10
2024-04-08T12:19:05.207Z,34.30
2024-04-08T12:21:37.440Z,34.80
2024-04-08T12:24:08.847Z,34.80
2024-04-08T12:26:40.260Z,35.20
2024-04-08T12:29:11.288Z,35.80
2024-04-08T12:31:42.628Z,36.10
2024-04-08T12:34:13.669Z,35.80
2024-04-08T12:36:44.935Z,36.20
2024-04-08T12:39:16.232Z,36.00
2024-04-08T12:41:47.391Z,35.80
2024-04-08T12:44:18.518Z,35.90
2024-04-08T12:46:49.942Z,36.10
2024-04-08T12:49:29.197Z,35.50
2024-04-08T12:52:00.287Z,35.40
2024-04-08T12:54:31.534Z,35.20
2024-04-08T12:57:06.097Z,35.00
2024-04-08T12:59:37.258Z,36.00
2024-04-08T13:02:08.478Z,35.70
2024-04-08T13:04:39.883Z,36.20
2024-04-08T13:07:11.424Z,36.00
2024-04-08T13:09:42.516Z,36.20
2024-04-08T13:12:13.626Z,36.20
2024-04-08T13:14:45.006Z,36.20
2024-04-08T13:17:16.141Z,36.60
2024-04-08T13:19:47.186Z,36.70
2024-04-08T13:22:18.545Z,36.80
2024-04-08T13:24:49.590Z,36.20
2024-04-08T13:27:20.750Z,36.30
2024-04-08T13:29:52.054Z,36.60
2024-04-08T13:32:26.506Z,36.60
2024-04-08T13:34:57.588Z,36.60
2024-04-08T13:37:29.400Z,36.90
2024-04-08T13:40:00.640Z,37.50
2024-04-08T13:42:33.143Z,37.30
2024-04-08T13:45:04.755Z,36.30
2024-04-08T13:47:36.166Z,36.60
2024-04-08T13:50:08.429Z,37.70
2024-04-08T13:52:39.487Z,38.10
2024-04-08T13:55:10.560Z,37.20
2024-04-08T13:57:41.727Z,35.90
2024-04-08T14:00:15.396Z,36.20
2024-04-08T14:02:47.494Z,36.00
2024-04-08T14:05:18.668Z,36.10
2024-04-08T14:07:50.222Z,36.30
2024-04-08T14:10:21.293Z,36.60
2024-04-08T14:12:52.365Z,35.80
2024-04-08T14:15:23.489Z,36.30
2024-04-08T14:17:54.814Z,36.10
2024-04-08T14:20:27.451Z,35.90
2024-04-08T14:23:02.012Z,34.80
2024-04-08T14:25:36.021Z,35.60
2024-04-08T14:28:07.225Z,35.40
2024-04-08T14:30:38.369Z,35.00
2024-04-08T14:33:10.635Z,34.20
2024-04-08T14:35:41.904Z,34.10
2024-04-08T14:38:38.236Z,34.30
2024-04-08T14:41:05.136Z,34.90
2024-04-08T14:43:43.892Z,34.30
2024-04-08T14:46:22.524Z,34.50
2024-04-08T14:48:53.954Z,34.60
2024-04-08T14:51:33.542Z,34.90
2024-04-08T14:54:10.664Z,35.10
2024-04-08T14:56:42.239Z,34.10
2024-04-08T14:59:13.568Z,34.30
2024-04-08T15:01:44.602Z,34.60
2024-04-08T15:04:16.162Z,35.20
2024-04-08T15:06:47.521Z,34.70
2024-04-08T15:09:18.616Z,35.00
2024-04-08T15:11:49.831Z,35.20
2024-04-08T15:14:20.993Z,34.80
2024-04-08T15:16:52.047Z,35.50
2024-04-08T15:19:23.074Z,35.40
2024-04-08T15:21:54.145Z,35.60
2024-04-08T15:24:25.319Z,35.60
2024-04-08T15:26:56.494Z,35.70
2024-04-08T15:29:27.628Z,35.60
2024-04-08T15:32:01.747Z,36.00
2024-04-08T15:34:33.042Z,35.50
2024-04-08T15:37:05.151Z,35.50
2024-04-08T15:39:36.212Z,35.40
2024-04-08T15:42:07.367Z,35.70
2024-04-08T15:44:38.396Z,35.40
2024-04-08T15:47:09.742Z,35.60
2024-04-08T15:49:42.760Z,35.30
2024-04-08T15:52:14.339Z,35.70
2024-04-08T15:54:46.895Z,35.80
2024-04-08T15:57:19.180Z,35.90
2024-04-08T15:59:50.511Z,35.80
2024-04-08T16:02:21.791Z,36.10
2024-04-08T16:04:53.325Z,36.20
2024-04-08T16:07:24.569Z,36.50
2024-04-08T16:09:56.316Z,36.80
2024-04-08T16:12:29.719Z,35.90
2024-04-08T16:15:06.597Z,36.70
2024-04-08T16:17:37.997Z,36.70
2024-04-08T16:20:09.440Z,36.90
2024-04-08T16:22:55.472Z,37.20
2024-04-08T16:25:31.682Z,37.00
2024-04-08T16:28:02.848Z,37.00
2024-04-08T16:30:34.247Z,36.80
2024-04-08T16:33:05.737Z,36.70
2024-04-08T16:35:36.892Z,36.70
2024-04-08T16:38:07.941Z,36.80
2024-04-08T16:40:39.086Z,36.70
2024-04-08T16:43:10.387Z,36.30
2024-04-08T16:45:41.513Z,35.90
2024-04-08T16:48:12.608Z,35.50
2024-04-08T16:50:43.674Z,35.40
2024-04-08T16:53:14.811Z,35.30
2024-04-08T16:55:59.237Z,35.10
2024-04-08T16:58:30.854Z,34.80
2024-04-08T17:01:02.116Z,34.80
2024-04-08T17:03:33.791Z,34.70
2024-04-08T17:06:07.451Z,34.30
2024-04-08T17:08:38.682Z,34.30
2024-04-08T17:11:10.840Z,34.60
2024-04-08T17:13:42.237Z,34.30
2024-04-08T17:16:13.362Z,33.90
2024-04-08T17:18:44.480Z,33.80
2024-04-08T17:21:15.737Z,33.60
2024-04-08T17:23:47.036Z,33.50
2024-04-08T17:26:18.733Z,33.10
2024-04-08T17:28:49.755Z,33.00
2024-04-08T17:31:20.883Z,32.50
2024-04-08T17:33:52.221Z,32.50
2024-04-08T17:36:23.390Z,32.30
2024-04-08T17:38:55.407Z,32.10
2024-04-08T17:41:26.568Z,31.70
2024-04-08T17:43:59.303Z,31.80
2024-04-08T17:46:31.870Z,31.70
2024-04-08T17:49:05.535Z,31.30
2024-04-08T17:51:36.923Z,31.10
2024-04-08T17:54:08.599Z,31.00
2024-04-08T17:56:40.824Z,30.90
2024-04-08T17:59:11.991Z,30.60
2024-04-08T18:01:43.136Z,30.50
2024-04-08T18:04:14.445Z,30.20
2024-04-08T18:06:45.843Z,30.40
2024-04-08T18:09:18.272Z,30.20
2024-04-08T18:11:54.138Z,30.30
2024-04-08T18:14:31.820Z,30.50
2024-04-08T18:17:03.037Z,30.00
2024-04-08T18:19:34.526Z,30.10
2024-04-08T18:22:05.832Z,30.30
2024-04-08T18:24:39.876Z,30.00
2024-04-08T18:27:11.247Z,29.70
2024-04-08T18:29:42.302Z,29.80
2024-04-08T18:32:14.932Z,30.00
2024-04-08T18:34:50.538Z,29.60
2024-04-08T18:37:21.627Z,29.30
2024-04-08T18:39:52.672Z,28.90
2024-04-08T18:42:23.807Z,28.90
2024-04-08T18:44:55.043Z,29.00
2024-04-08T18:47:26.174Z,28.80
2024-04-08T18:49:57.459Z,28.80
2024-04-08T18:52:28.571Z,29.60
2024-04-08T18:54:59.616Z,29.60
2024-04-08T18:57:30.699Z,29.50
2024-04-08T19:00:02.019Z,29.50
2024-04-08T19:02:33.188Z,29.40
2024-04-08T19:05:05.130Z,29.20
2024-04-08T19:07:36.186Z,29.00
2024-04-08T19:10:07.738Z,28.60
2024-04-08T19:12:38.962Z,28.50
2024-04-08T19:15:10.575Z,28.30
2024-04-08T19:17:41.923Z,28.30
2024-04-08T19:20:13.087Z,28.20
2024-04-08T19:22:47.211Z,27.80
2024-04-08T19:25:18.433Z,27.90
2024-04-08T19:27:55.129Z,28.10
2024-04-08T19:30:26.538Z,27.80
2024-04-08T19:32:59.747Z,27.60
2024-04-08T19:35:30.947Z,27.70
2024-04-08T19:38:02.054Z,27.70
2024-04-08T19:40:34.274Z,27.70
2024-04-08T19:43:05.359Z,27.70
2024-04-08T19:45:39.097Z,27.60
2024-04-08T19:48:13.405Z,27.50
2024-04-08T19:50:44.769Z,27.50
2024-04-08T19:53:15.986Z,27.40
2024-04-08T19:55:47.071Z,27.60
2024-04-08T19:58:18.157Z,27.80
2024-04-08T20:00:49.254Z,28.10
2024-04-08T20:03:20.538Z,28.10
2024-04-08T20:06:01.066Z,28.00
2024-04-08T20:08:35.736Z,27.60
2024-04-08T20:11:11.115Z,28.00
2024-04-08T20:13:44.253Z,28.00
2024-04-08T20:16:21.610Z,27.80
2024-04-08T20:18:53.090Z,27.50
2024-04-08T20:21:26.955Z,27.40
2024-04-08T20:23:58.142Z,27.70
2024-04-08T20:26:29.276Z,27.70
2024-04-08T20:29:01.625Z,27.90
2024-04-08T20:31:32.788Z,27.80
2024-04-08T20:34:06.730Z,27.60
2024-04-08T20:36:39.613Z,27.50
2024-04-08T20:39:10.789Z,27.50
2024-04-08T20:41:42.370Z,27.30
2024-04-08T20:44:13.426Z,27.10
2024-04-08T20:46:46.032Z,26.70
2024-04-08T20:49:17.166Z,26.90
2024-04-08T20:51:55.557Z,26.90
2024-04-08T20:54:29.034Z,27.00
2024-04-08T20:57:02.795Z,26.50
2024-04-08T20:59:34.014Z,26.60
2024-04-08T21:02:05.709Z,26.40
2024-04-08T21:04:37.467Z,26.20
2024-04-08T21:07:08.830Z,26.20
2024-04-08T21:09:40.036Z,26.30
2024-04-08T21:12:11.210Z,26.20
2024-04-08T21:14:42.292Z,26.30
2024-04-08T21:17:13.395Z,26.90
2024-04-08T21:19:44.545Z,26.90
2024-04-08T21:22:15.759Z,26.40
2024-04-08T21:24:50.097Z,26.20
2024-04-08T21:27:21.226Z,26.30
2024-04-08T21:29:52.425Z,25.80
2024-04-08T21:32:23.607Z,26.00
2024-04-08T21:34:54.670Z,26.30
2024-04-08T21:37:25.722Z,26.30
2024-04-08T21:39:56.850Z,26.70
2024-04-08T21:42:27.975Z,26.80
2024-04-08T21:44:59.729Z,26.90
2024-04-08T21:47:30.803Z,27.20
2024-04-08T21:50:04.574Z,27.00
2024-04-08T21:52:35.645Z,27.20
2024-04-08T21:55:07.022Z,27.20
2024-04-08T21:57:38.111Z,27.40
2024-04-08T22:00:14.483Z,27.70
2024-04-08T22:02:45.582Z,27.80
2024-04-08T22:05:16.641Z,28.20
2024-04-08T22:07:48.697Z,28.10
2024-04-08T22:10:20.167Z,28.10
2024-04-08T22:12:51.192Z,28.10
2024-04-08T22:15:22.300Z,28.40
2024-04-08T22:17:57.745Z,28.60
2024-04-08T22:20:29.021Z,28.70
2024-04-08T22:23:00.626Z,28.70
2024-04-08T22:25:32.368Z,28.60
2024-04-08T22:28:04.585Z,28.50
2024-04-08T22:30:39.193Z,28.40
2024-04-08T22:33:10.563Z,28.30
2024-04-08T22:35:42.003Z,27.90
2024-04-08T22:38:13.079Z,28.10
2024-04-08T22:40:46.147Z,28.00
2024-04-08T22:43:17.256Z,27.90
2024-04-08T22:45:48.340Z,27.70
2024-04-08T22:48:19.712Z,27.50
2024-04-08T22:50:50.865Z,27.30
2024-04-08T22:53:22.663Z,27.50
2024-04-08T22:55:53.783Z,27.30
2024-04-08T22:58:24.808Z,27.30
2024-04-08T23:00:55.960Z,27.10
2024-04-08T23:03:27.512Z,26.90
2024-04-08T23:05:59.099Z,26.30
2024-04-08T23:08:30.205Z,26.40
2024-04-08T23:11:01.283Z,26.60
2024-04-08T23:13:32.359Z,26.40
2024-04-08T23:16:03.399Z,26.90
2024-04-08T23:18:34.650Z,26.40
2024-04-08T23:21:06.107Z,26.30
2024-04-08T23:23:37.236Z,25.90
2024-04-08T23:26:09.370Z,26.10
2024-04-08T23:28:40.539Z,25.70
2024-04-08T23:31:11.952Z,25.60
2024-04-08T23:33:43.123Z,25.60
2024-04-08T23:36:14.250Z,25.60
2024-04-08T23:38:45.355Z,25.40
2024-04-08T23:41:16.697Z,25.50
2024-04-08T23:43:48.131Z,25.20
2024-04-08T23:46:19.172Z,25.40
2024-04-08T23:48:50.972Z,25.80
2024-04-08T23:51:22.191Z,25.90
2024-04-08T23:53:57.884Z,25.50
2024-04-08T23:56:29.016Z,25.40
2024-04-08T23:59:00.122Z,25.60
